createdAt,value
2023-05-09T00:04:35.666Z,0.90
2023-05-09T00:09:38.110Z,1.42
2023-05-09T00:14:41.002Z,0.85
2023-05-09T00:19:44.219Z,1.13
2023-05-09T00:24:47.864Z,1.05
2023-05-09T00:29:51.277Z,0.95
2023-05-09T00:34:54.248Z,0.88
2023-05-09T00:39:57.125Z,0.90
2023-05-09T00:45:00.690Z,1.00
2023-05-09T00:50:04.813Z,0.90
2023-05-09T00:55:09.243Z,0.90
2023-05-09T01:00:15.783Z,0.90
2023-05-09T01:05:18.506Z,1.35
2023-05-09T01:10:59.812Z,0.90
2023-05-09T01:16:35.507Z,0.80
2023-05-09T01:21:44.316Z,0.75
2023-05-09T01:27:18.062Z,0.70
2023-05-09T01:32:25.246Z,0.93
2023-05-09T01:37:33.740Z,0.90
2023-05-09T01:42:42.866Z,0.93
2023-05-09T01:47:45.412Z,0.80
2023-05-09T01:52:52.000Z,1.15
2023-05-09T01:57:56.110Z,0.80
2023-05-09T02:02:59.645Z,0.80
2023-05-09T02:08:02.377Z,0.80
2023-05-09T02:13:07.929Z,0.90
2023-05-09T02:18:11.305Z,0.80
2023-05-09T02:23:14.176Z,1.42
2023-05-09T02:28:19.983Z,0.82
2023-05-09T02:38:27.397Z,1.75
2023-05-09T02:43:30.941Z,0.82
2023-05-09T02:48:35.245Z,1.00
2023-05-09T02:53:38.573Z,0.70
2023-05-09T02:58:41.964Z,0.73
2023-05-09T03:03:45.116Z,0.90
2023-05-09T03:08:49.625Z,0.68
2023-05-09T03:13:52.985Z,0.75
2023-05-09T03:18:55.439Z,1.10
2023-05-09T03:23:58.517Z,0.80
2023-05-09T03:29:01.490Z,0.82
2023-05-09T03:34:03.908Z,1.10
2023-05-09T03:39:07.053Z,0.98
2023-05-09T03:44:09.438Z,1.05
2023-05-09T03:49:13.510Z,1.08
2023-05-09T03:54:16.693Z,0.70
2023-05-09T03:59:19.388Z,2.60
2023-05-09T04:04:22.403Z,1.10
2023-05-09T04:09:24.950Z,1.27
2023-05-09T04:14:31.209Z,1.40
2023-05-09T04:19:33.961Z,0.95
2023-05-09T04:24:37.044Z,1.38
2023-05-09T04:29:39.921Z,1.02
2023-05-09T04:34:43.529Z,1.70
2023-05-09T04:39:53.160Z,0.88
2023-05-09T04:45:02.999Z,1.17
2023-05-09T04:50:08.293Z,1.00
2023-05-09T04:55:12.192Z,1.02
2023-05-09T05:00:19.497Z,1.08
2023-05-09T05:05:25.365Z,1.20
2023-05-09T05:15:43.570Z,1.00
2023-05-09T05:20:47.449Z,1.50
2023-05-09T05:25:50.653Z,1.60
2023-05-09T05:30:56.586Z,1.58
2023-05-09T05:35:59.705Z,1.80
2023-05-09T05:41:02.279Z,2.25
2023-05-09T05:46:06.347Z,2.90
2023-05-09T05:51:10.130Z,2.92
2023-05-09T05:56:15.120Z,3.60
2023-05-09T06:01:17.569Z,2.10
2023-05-09T06:06:23.279Z,1.45
2023-05-09T06:11:26.359Z,3.63
2023-05-09T06:16:29.638Z,2.65
2023-05-09T06:21:34.380Z,2.78
2023-05-09T06:26:37.599Z,1.38
2023-05-09T06:31:41.091Z,2.85
2023-05-09T06:36:45.516Z,3.75
2023-05-09T06:41:48.638Z,2.15
2023-05-09T06:47:02.543Z,2.28
2023-05-09T06:57:08.318Z,2.70
2023-05-09T07:02:11.695Z,3.00
2023-05-09T07:07:14.053Z,2.60
2023-05-09T07:12:16.443Z,2.10
2023-05-09T07:17:23.625Z,2.33
2023-05-09T07:22:28.789Z,2.38
2023-05-09T07:27:33.561Z,3.83
2023-05-09T07:32:36.477Z,1.95
2023-05-09T07:37:41.348Z,2.08
2023-05-09T07:42:50.070Z,1.65
2023-05-09T07:47:54.464Z,1.90
2023-05-09T07:52:57.049Z,2.75
2023-05-09T07:57:59.731Z,4.03
2023-05-09T08:03:02.502Z,1.13
2023-05-09T08:08:05.436Z,3.50
2023-05-09T08:13:08.875Z,2.33
2023-05-09T08:18:12.572Z,1.80
2023-05-09T08:23:15.067Z,2.08
2023-05-09T08:28:18.245Z,1.40
2023-05-09T08:33:20.710Z,1.98
2023-05-09T08:38:24.524Z,1.50
2023-05-09T08:43:28.960Z,1.55
2023-05-09T08:48:34.036Z,1.83
2023-05-09T08:53:38.169Z,2.90
2023-05-09T08:58:41.153Z,1.02
2023-05-09T09:03:47.820Z,2.70
2023-05-09T09:08:51.196Z,3.08
2023-05-09T09:13:54.759Z,2.55
2023-05-09T09:18:59.280Z,1.40
2023-05-09T09:24:03.590Z,1.20
2023-05-09T09:29:06.934Z,0.80
2023-05-09T09:34:10.746Z,1.70
2023-05-09T09:39:14.238Z,2.28
2023-05-09T09:44:18.675Z,1.20
2023-05-09T09:49:24.282Z,2.25
2023-05-09T09:54:27.918Z,2.75
2023-05-09T09:59:31.278Z,1.30
2023-05-09T10:04:36.674Z,1.80
2023-05-09T10:09:41.720Z,2.30
2023-05-09T10:14:45.019Z,1.77
2023-05-09T10:19:50.442Z,2.75
2023-05-09T10:25:07.315Z,2.25
2023-05-09T10:30:24.011Z,1.90
2023-05-09T10:35:31.187Z,2.65
2023-05-09T10:40:35.367Z,1.17
2023-05-09T10:45:38.899Z,1.42
2023-05-09T10:50:43.308Z,2.50
2023-05-09T10:56:00.555Z,2.65
2023-05-09T11:01:07.217Z,1.25
2023-05-09T11:06:10.338Z,3.15
2023-05-09T11:11:27.107Z,3.08
2023-05-09T11:16:30.606Z,2.25
2023-05-09T11:21:36.950Z,2.50
2023-05-09T11:26:40.294Z,1.60
2023-05-09T11:32:07.410Z,2.35
2023-05-09T11:37:12.216Z,3.08
2023-05-09T11:42:15.204Z,3.33
2023-05-09T11:47:18.906Z,2.00
2023-05-09T11:52:22.486Z,1.48
2023-05-09T11:57:25.598Z,2.03
2023-05-09T12:02:29.426Z,2.13
2023-05-09T12:07:32.487Z,2.13
2023-05-09T12:12:37.076Z,3.30
2023-05-09T12:17:42.081Z,3.05
2023-05-09T12:22:44.512Z,3.47
2023-05-09T12:27:47.730Z,1.98
2023-05-09T12:32:50.433Z,2.60
2023-05-09T12:38:00.765Z,1.92
2023-05-09T12:43:05.988Z,2.05
2023-05-09T12:48:11.978Z,1.75
2023-05-09T12:53:25.378Z,1.45
2023-05-09T12:58:35.376Z,2.00
2023-05-09T13:03:38.224Z,3.90
2023-05-09T13:08:41.346Z,4.00
2023-05-09T13:13:43.912Z,4.30
2023-05-09T13:18:46.952Z,2.30
2023-05-09T13:23:51.428Z,2.25
2023-05-09T13:28:54.270Z,2.40
2023-05-09T13:33:56.640Z,2.53
2023-05-09T13:39:01.102Z,1.52
2023-05-09T13:44:04.428Z,2.35
2023-05-09T13:49:07.301Z,4.13
2023-05-09T13:54:12.985Z,3.67
2023-05-09T13:59:16.022Z,3.47
2023-05-09T14:04:18.429Z,2.20
2023-05-09T14:09:22.418Z,3.38
2023-05-09T14:14:26.446Z,2.33
2023-05-09T14:19:30.598Z,3.35
2023-05-09T14:24:36.439Z,4.80
2023-05-09T14:29:41.302Z,3.72
2023-05-09T14:34:44.765Z,5.38
2023-05-09T14:39:49.765Z,5.03
2023-05-09T14:44:52.309Z,4.90
2023-05-09T14:49:55.498Z,5.03
2023-05-09T14:54:59.862Z,2.45
2023-05-09T15:00:16.770Z,1.95
2023-05-09T15:05:23.170Z,2.55
2023-05-09T15:10:26.685Z,3.20
2023-05-09T15:15:29.242Z,2.75
2023-05-09T15:20:31.711Z,3.08
2023-05-09T15:25:35.036Z,2.90
2023-05-09T15:30:41.344Z,3.13
2023-05-09T15:35:44.416Z,3.35
2023-05-09T15:40:48.032Z,3.72
2023-05-09T15:45:51.440Z,3.10
2023-05-09T15:50:54.455Z,3.97
2023-05-09T15:55:57.250Z,3.60
2023-05-09T16:00:59.778Z,4.10
2023-05-09T16:06:03.583Z,3.10
2023-05-09T16:11:06.756Z,4.25
2023-05-09T16:16:09.249Z,4.78
2023-05-09T16:21:13.077Z,3.58
2023-05-09T16:26:16.036Z,3.00
2023-05-09T16:31:19.018Z,2.72
2023-05-09T16:36:22.173Z,2.28
2023-05-09T16:41:24.541Z,3.30
2023-05-09T16:46:27.502Z,3.45
2023-05-09T16:51:32.015Z,3.00
2023-05-09T16:56:36.368Z,3.40
2023-05-09T17:01:39.579Z,3.90
2023-05-09T17:06:43.337Z,3.20
2023-05-09T17:11:45.874Z,4.93
2023-05-09T17:16:48.237Z,4.45
2023-05-09T17:21:50.969Z,3.20
2023-05-09T17:26:53.596Z,3.35
2023-05-09T17:32:02.585Z,2.75
2023-05-09T17:37:06.237Z,4.28
2023-05-09T17:42:08.822Z,3.60
2023-05-09T17:47:12.881Z,5.15
2023-05-09T17:52:15.286Z,3.72
2023-05-09T17:57:18.351Z,2.30
2023-05-09T18:02:24.296Z,1.98
2023-05-09T18:07:27.633Z,2.20
2023-05-09T18:12:31.382Z,2.75
2023-05-09T18:17:33.917Z,3.53
2023-05-09T18:22:37.700Z,3.25
2023-05-09T18:27:40.122Z,3.20
2023-05-09T18:32:42.514Z,4.00
2023-05-09T18:37:46.081Z,8.77
2023-05-09T18:42:49.153Z,4.32
2023-05-09T18:47:51.582Z,5.25
2023-05-09T18:52:54.094Z,4.55
2023-05-09T18:57:56.433Z,5.45
2023-05-09T19:02:58.903Z,6.05
2023-05-09T19:08:01.290Z,6.15
2023-05-09T19:13:06.327Z,2.90
2023-05-09T19:18:09.120Z,3.45
2023-05-09T19:23:12.379Z,3.08
2023-05-09T19:28:14.901Z,3.55
2023-05-09T19:33:18.366Z,1.70
2023-05-09T19:38:20.932Z,2.08
2023-05-09T19:43:23.916Z,2.88
2023-05-09T19:48:27.122Z,2.72
2023-05-09T19:53:29.674Z,2.25
2023-05-09T19:58:32.988Z,2.92
2023-05-09T20:03:37.215Z,1.77
2023-05-09T20:08:41.113Z,1.95
2023-05-09T20:13:44.693Z,1.75
2023-05-09T20:18:49.065Z,2.42
2023-05-09T20:23:53.734Z,2.47
2023-05-09T20:29:01.484Z,2.28
2023-05-09T20:34:04.221Z,2.15
2023-05-09T20:39:09.743Z,2.45
2023-05-09T20:44:15.404Z,1.92
2023-05-09T20:49:20.252Z,3.03
2023-05-09T20:54:24.198Z,3.40
2023-05-09T20:59:26.962Z,4.10
2023-05-09T21:04:29.808Z,3.47
2023-05-09T21:09:32.873Z,1.77
2023-05-09T21:14:36.313Z,0.85
2023-05-09T21:19:38.630Z,1.00
2023-05-09T21:24:41.025Z,0.80
2023-05-09T21:29:44.678Z,1.00
2023-05-09T21:34:47.772Z,0.82
2023-05-09T21:39:50.748Z,0.75
2023-05-09T21:44:54.860Z,1.08
2023-05-09T21:49:57.094Z,2.83
2023-05-09T21:55:00.379Z,2.05
2023-05-09T22:00:05.615Z,0.90
2023-05-09T22:05:16.101Z,0.77
2023-05-09T22:10:19.462Z,0.73
2023-05-09T22:15:22.080Z,0.60
2023-05-09T22:20:24.613Z,0.63
2023-05-09T22:25:27.100Z,0.80
2023-05-09T22:30:30.482Z,0.50
2023-05-09T22:35:33.426Z,0.50
2023-05-09T22:40:37.036Z,0.80
2023-05-09T22:45:39.966Z,1.30
2023-05-09T22:50:42.373Z,0.80
2023-05-09T22:55:44.811Z,1.70
2023-05-09T23:00:47.281Z,1.08
2023-05-09T23:05:49.816Z,1.30
2023-05-09T23:10:52.150Z,0.70
2023-05-09T23:15:54.594Z,0.80
2023-05-09T23:20:57.020Z,0.90
2023-05-09T23:25:59.445Z,0.70
2023-05-09T23:31:02.155Z,0.70
2023-05-09T23:36:04.874Z,0.95
2023-05-09T23:41:07.701Z,0.93
2023-05-09T23:46:17.084Z,0.90
2023-05-09T23:51:20.687Z,0.85
2023-05-09T23:56:23.658Z,1.30
